Time;durP1;ratioP1;P1;durP2;ratioP2;P2;SDS_P1;SDS_P2;PMS_P1;PMS_P2;Temp;Humidity;BMP_temperature;BMP_pressure;BME280_temperature;BME280_humidity;BME280_pressure;Samples;Min_cycle;Max_cycle;Signal;HPM_P1;HPM_P2
2024/02/18 00:01:41;;;;;;;8.35;3.50;;;11.20;99.90;;;;;;5035959;28;20386;-52
2024/02/18 00:04:07;;;;;;;5.38;3.13;;;11.20;99.90;;;;;;5035141;28;20040;-50
2024/02/18 00:06:33;;;;;;;7.43;2.85;;;11.20;99.90;;;;;;5035970;28;20398;-53
2024/02/18 00:08:59;;;;;;;8.50;2.30;;;11.20;99.90;;;;;;5034584;28;20029;-53
2024/02/18 00:11:25;;;;;;;5.85;2.13;;;11.20;99.90;;;;;;5034849;28;20056;-54
2024/02/18 00:13:51;;;;;;;7.15;2.92;;;11.20;99.90;;;;;;5034725;28;20410;-52
2024/02/18 00:16:17;;;;;;;11.45;2.85;;;11.20;99.90;;;;;;5040228;28;20032;-56
2024/02/18 00:18:43;;;;;;;8.00;2.42;;;11.20;99.90;;;;;;5054618;28;20285;-53
2024/02/18 00:21:14;;;;;;;6.47;2.50;;;11.20;99.90;;;;;;5051365;28;20051;-53
2024/02/18 00:23:40;;;;;;;9.05;2.38;;;11.20;99.90;;;;;;5041949;28;20091;-53
2024/02/18 00:26:06;;;;;;;12.02;3.08;;;11.10;99.90;;;;;;5034444;28;20022;-53
2024/02/18 00:28:32;;;;;;;13.07;2.50;;;11.10;99.90;;;;;;5034389;28;20112;-52
2024/02/18 00:30:57;;;;;;;4.50;2.35;;;11.10;99.90;;;;;;5034347;28;20033;-55
2024/02/18 00:33:23;;;;;;;8.77;2.75;;;11.20;99.90;;;;;;5034458;28;20033;-60
2024/02/18 00:35:49;;;;;;;6.72;2.88;;;11.20;99.90;;;;;;5037584;28;20025;-52
2024/02/18 00:38:14;;;;;;;8.10;3.05;;;11.20;99.90;;;;;;5053016;28;20063;-53
2024/02/18 00:40:40;;;;;;;11.40;2.85;;;11.20;99.90;;;;;;5050412;28;20115;-54
2024/02/18 00:43:06;;;;;;;11.77;2.85;;;11.20;99.90;;;;;;5054488;28;20531;-41
2024/02/18 00:45:32;;;;;;;8.10;3.95;;;11.20;99.90;;;;;;5053237;28;20040;-39
2024/02/18 00:47:57;;;;;;;8.10;2.45;;;11.20;99.90;;;;;;5048790;28;20103;-52
2024/02/18 00:50:23;;;;;;;11.02;3.08;;;11.10;99.90;;;;;;5038793;28;20031;-43
2024/02/18 00:52:51;;;;;;;13.35;3.35;;;11.20;99.90;;;;;;5032733;28;20108;-39
2024/02/18 00:55:17;;;;;;;13.45;3.10;;;11.20;99.90;;;;;;5037868;28;20028;-39
2024/02/18 00:57:43;;;;;;;7.45;2.80;;;11.20;99.90;;;;;;5053933;28;20021;-44
2024/02/18 01:00:10;;;;;;;16.77;2.80;;;11.20;99.90;;;;;;5048950;28;20021;-39
2024/02/18 01:02:36;;;;;;;14.67;2.30;;;11.30;99.90;;;;;;5032626;28;20371;-39
2024/02/18 01:05:02;;;;;;;7.25;2.47;;;11.40;99.90;;;;;;5032708;28;20330;-40
2024/02/18 01:07:28;;;;;;;5.35;2.95;;;11.40;99.90;;;;;;5034171;28;20398;-40
2024/02/18 01:09:54;;;;;;;7.50;2.30;;;11.40;99.90;;;;;;5033676;28;20083;-41
2024/02/18 01:12:19;;;;;;;7.50;2.78;;;11.40;99.90;;;;;;5033676;28;20095;-39
2024/02/18 01:14:45;;;;;;;8.98;2.28;;;11.40;99.90;;;;;;5032320;28;20474;-42
2024/02/18 01:17:11;;;;;;;4.95;2.70;;;11.50;99.90;;;;;;5038206;28;20032;-41
2024/02/18 01:19:37;;;;;;;14.07;2.80;;;11.50;99.90;;;;;;5053192;28;20037;-39
2024/02/18 01:22:03;;;;;;;7.50;3.72;;;11.50;99.90;;;;;;5044993;28;20512;-39
2024/02/18 01:24:29;;;;;;;13.55;3.17;;;11.40;99.90;;;;;;5042697;28;20079;-40
2024/02/18 01:26:54;;;;;;;10.43;3.03;;;11.50;99.90;;;;;;5035709;28;20474;-40
2024/02/18 01:29:22;;;;;;;14.52;3.70;;;11.40;99.90;;;;;;5033510;28;20021;-38
2024/02/18 01:31:48;;;;;;;10.48;4.35;;;11.50;99.90;;;;;;5034244;28;20485;-39
2024/02/18 01:34:14;;;;;;;6.10;2.67;;;11.50;99.90;;;;;;5033295;28;20053;-40
2024/02/18 01:36:39;;;;;;;8.95;2.38;;;11.50;99.90;;;;;;5043134;28;20075;-40
2024/02/18 01:39:05;;;;;;;8.07;2.40;;;11.50;99.90;;;;;;5052955;28;20107;-40
2024/02/18 01:41:31;;;;;;;13.80;3.45;;;11.50;99.90;;;;;;5038133;28;20048;-40
2024/02/18 01:43:57;;;;;;;11.57;2.60;;;11.50;99.90;;;;;;5053027;28;20029;-40
2024/02/18 01:46:23;;;;;;;8.57;2.70;;;11.50;99.90;;;;;;5041195;28;20436;-39
2024/02/18 01:48:49;;;;;;;3.25;2.45;;;11.50;99.90;;;;;;5033041;28;20041;-40
2024/02/18 01:51:15;;;;;;;5.15;2.03;;;11.50;99.90;;;;;;5032870;28;20025;-43
2024/02/18 01:53:41;;;;;;;8.02;2.45;;;11.50;99.90;;;;;;5033099;28;20137;-54
2024/02/18 01:56:08;;;;;;;12.27;2.90;;;11.60;99.90;;;;;;5031430;28;20560;-54
2024/02/18 01:58:34;;;;;;;6.63;2.88;;;11.50;99.90;;;;;;5033458;28;20025;-57
2024/02/18 02:01:00;;;;;;;7.32;2.10;;;11.50;99.90;;;;;;5037716;28;20462;-52
2024/02/18 02:03:27;;;;;;;6.22;2.20;;;11.50;99.90;;;;;;5072351;28;20081;-52
2024/02/18 02:05:54;;;;;;;11.27;3.00;;;11.60;99.90;;;;;;5048400;28;20032;-55
2024/02/18 02:08:21;;;;;;;5.57;2.40;;;11.50;99.90;;;;;;5052953;28;20470;-53
2024/02/18 02:10:47;;;;;;;10.23;2.08;;;11.50;99.90;;;;;;5069973;28;20517;-54
2024/02/18 02:13:13;;;;;;;8.15;2.67;;;11.40;99.90;;;;;;5043875;28;20022;-54
2024/02/18 02:15:40;;;;;;;8.23;2.40;;;11.50;99.90;;;;;;5049550;28;20029;-53
2024/02/18 02:18:06;;;;;;;9.70;2.55;;;11.50;99.90;;;;;;5052552;28;20024;-54
2024/02/18 02:20:31;;;;;;;8.02;1.88;;;11.50;99.90;;;;;;5047353;28;20418;-54
2024/02/18 02:22:57;;;;;;;9.10;2.35;;;11.50;99.90;;;;;;5032553;28;20462;-53
2024/02/18 02:25:23;;;;;;;7.22;2.65;;;11.50;99.90;;;;;;5032576;28;20096;-54
2024/02/18 02:27:57;;;;;;;7.57;2.20;;;11.50;99.90;;;;;;5038021;28;20028;-54
2024/02/18 02:30:23;;;;;;;3.15;1.80;;;11.50;99.90;;;;;;5052399;28;20496;-54
2024/02/18 02:32:49;;;;;;;3.15;1.95;;;11.40;99.90;;;;;;5033950;28;20017;-55
2024/02/18 02:35:15;;;;;;;7.28;2.20;;;11.40;99.90;;;;;;5042690;28;20059;-54
2024/02/18 02:37:41;;;;;;;12.68;2.50;;;11.40;99.90;;;;;;5033817;28;20022;-56
2024/02/18 02:40:08;;;;;;;13.48;2.83;;;11.50;99.90;;;;;;5041090;28;20029;-57
2024/02/18 02:42:33;;;;;;;7.65;2.63;;;11.40;99.90;;;;;;5049641;28;20573;-54
2024/02/18 02:44:59;;;;;;;8.55;1.85;;;11.50;99.90;;;;;;5048510;28;20052;-54
2024/02/18 02:47:24;;;;;;;9.70;2.97;;;11.40;99.90;;;;;;5038866;28;20057;-53
2024/02/18 02:49:50;;;;;;;5.38;2.15;;;11.40;99.90;;;;;;5037283;28;20422;-53
2024/02/18 02:52:16;;;;;;;5.97;2.25;;;11.40;99.90;;;;;;5036543;28;20030;-54
2024/02/18 02:54:42;;;;;;;9.50;2.40;;;11.40;99.90;;;;;;5036212;28;20033;-54
2024/02/18 02:57:07;;;;;;;3.13;1.80;;;11.40;99.90;;;;;;5036076;28;20087;-54
2024/02/18 02:59:33;;;;;;;5.85;2.17;;;11.40;99.90;;;;;;5036009;28;20108;-53
2024/02/18 03:01:59;;;;;;;6.18;1.70;;;11.30;99.90;;;;;;5046895;28;20082;-54
2024/02/18 03:04:24;;;;;;;10.55;2.70;;;11.30;99.90;;;;;;5055747;28;20029;-52
2024/02/18 03:06:50;;;;;;;4.88;2.17;;;11.30;99.90;;;;;;5054870;28;20385;-53
2024/02/18 03:09:17;;;;;;;9.32;2.53;;;11.20;99.90;;;;;;5053820;28;20087;-54
2024/02/18 03:11:43;;;;;;;7.13;2.38;;;11.20;99.90;;;;;;5048016;28;20389;-53
2024/02/18 03:14:08;;;;;;;8.15;2.35;;;11.20;99.90;;;;;;5043451;28;20026;-52
2024/02/18 03:16:34;;;;;;;7.72;2.85;;;11.10;99.90;;;;;;5035828;28;20486;-53
2024/02/18 03:19:00;;;;;;;4.55;1.92;;;11.10;99.90;;;;;;5035765;28;20037;-53
2024/02/18 03:21:26;;;;;;;4.63;1.38;;;11.00;99.90;;;;;;5035437;28;20128;-54
2024/02/18 03:23:53;;;;;;;6.85;2.03;;;10.90;99.90;;;;;;5035615;28;20242;-53
2024/02/18 03:26:19;;;;;;;2.85;1.67;;;10.90;99.90;;;;;;5035842;28;20398;-54
2024/02/18 03:28:45;;;;;;;8.95;2.25;;;10.90;99.90;;;;;;5046037;28;20561;-53
2024/02/18 03:31:17;;;;;;;9.13;2.35;;;10.90;99.90;;;;;;5044079;28;20029;-54
2024/02/18 03:33:43;;;;;;;6.72;2.25;;;10.80;99.90;;;;;;5036267;28;20029;-52
2024/02/18 03:36:09;;;;;;;5.63;2.97;;;10.80;99.90;;;;;;5036475;28;20102;-56
2024/02/18 03:38:35;;;;;;;10.50;2.10;;;10.80;99.90;;;;;;5035348;28;20029;-53
2024/02/18 03:41:00;;;;;;;5.60;2.05;;;10.80;99.90;;;;;;5034956;28;20024;-54
2024/02/18 03:43:29;;;;;;;7.45;2.00;;;10.70;99.90;;;;;;5035195;28;20143;-53
2024/02/18 03:45:55;;;;;;;8.77;2.17;;;10.70;99.90;;;;;;5034094;28;20116;-54
2024/02/18 03:48:21;;;;;;;7.63;1.75;;;10.60;99.90;;;;;;5035207;28;20087;-53
2024/02/18 03:50:46;;;;;;;5.82;1.70;;;10.60;99.90;;;;;;5036828;28;20037;-56
2024/02/18 03:53:12;;;;;;;3.47;1.70;;;10.60;99.90;;;;;;5055061;28;20052;-54
2024/02/18 03:55:37;;;;;;;3.53;1.70;;;10.50;99.90;;;;;;5034444;28;20383;-54
2024/02/18 03:58:03;;;;;;;6.65;2.08;;;10.60;99.90;;;;;;5035166;28;20036;-54
2024/02/18 04:00:29;;;;;;;11.93;1.75;;;10.50;99.90;;;;;;5047493;28;20469;-53
2024/02/18 04:02:54;;;;;;;9.20;1.70;;;10.60;99.90;;;;;;5044555;28;20385;-54
2024/02/18 04:05:20;;;;;;;5.60;1.90;;;10.60;99.90;;;;;;5034820;28;20025;-54
2024/02/18 04:07:46;;;;;;;12.13;2.38;;;10.60;99.90;;;;;;5034835;28;20075;-52
2024/02/18 04:10:12;;;;;;;6.57;1.58;;;10.60;99.90;;;;;;5034798;28;20021;-55
2024/02/18 04:12:37;;;;;;;4.97;2.13;;;10.60;99.90;;;;;;5044372;28;20029;-49
2024/02/18 04:15:03;;;;;;;3.85;1.73;;;10.50;99.90;;;;;;5054567;28;20119;-54
2024/02/18 04:17:29;;;;;;;5.75;1.80;;;10.50;99.90;;;;;;5049523;28;20032;-53
2024/02/18 04:19:55;;;;;;;4.10;1.88;;;10.60;99.90;;;;;;5034428;28;20041;-37
2024/02/18 04:22:20;;;;;;;5.97;1.40;;;10.50;99.90;;;;;;5034713;28;20115;-37
2024/02/18 04:24:46;;;;;;;7.28;2.03;;;10.50;99.90;;;;;;5034127;28;20510;-39
2024/02/18 04:27:12;;;;;;;4.13;1.52;;;10.50;99.90;;;;;;5046050;28;20450;-37
2024/02/18 04:29:38;;;;;;;7.68;1.75;;;10.50;99.90;;;;;;5052764;28;20486;-37
2024/02/18 04:32:05;;;;;;;6.85;1.67;;;10.50;99.90;;;;;;5052757;28;20033;-37
2024/02/18 04:34:32;;;;;;;9.05;2.22;;;10.50;99.90;;;;;;5050952;28;20527;-37
2024/02/18 04:36:58;;;;;;;3.80;1.85;;;10.50;99.90;;;;;;5033960;28;20087;-36
2024/02/18 04:39:24;;;;;;;3.85;1.55;;;10.50;99.90;;;;;;5034098;28;20105;-38
2024/02/18 04:41:50;;;;;;;11.38;1.75;;;10.50;99.90;;;;;;5034276;28;20024;-38
2024/02/18 04:44:16;;;;;;;3.28;1.38;;;10.50;99.90;;;;;;5035163;28;20022;-38
2024/02/18 04:46:42;;;;;;;3.78;1.27;;;10.60;99.90;;;;;;5034031;28;20048;-37
2024/02/18 04:49:07;;;;;;;11.50;1.67;;;10.60;99.90;;;;;;5033899;28;20457;-40
2024/02/18 04:51:33;;;;;;;5.90;1.58;;;10.60;99.90;;;;;;5034168;28;20052;-36
2024/02/18 04:53:59;;;;;;;8.52;1.67;;;10.60;99.90;;;;;;5033958;28;20026;-37
2024/02/18 04:56:24;;;;;;;7.25;2.55;;;10.70;99.90;;;;;;5033952;28;20028;-38
2024/02/18 04:58:50;;;;;;;5.72;1.40;;;10.70;99.90;;;;;;5046144;28;20492;-37
2024/02/18 05:01:16;;;;;;;7.38;1.70;;;10.60;99.90;;;;;;5048125;28;20029;-38
2024/02/18 05:03:41;;;;;;;4.85;1.60;;;10.70;99.90;;;;;;5033839;28;20056;-36
2024/02/18 05:06:11;;;;;;;7.15;2.63;;;10.60;99.90;;;;;;5033705;28;20037;-40
2024/02/18 05:08:37;;;;;;;6.90;1.90;;;10.60;99.90;;;;;;5032540;28;20037;-37
2024/02/18 05:11:03;;;;;;;4.38;1.83;;;10.60;99.90;;;;;;5052223;28;20497;-39
2024/02/18 05:13:29;;;;;;;4.93;1.85;;;10.50;99.90;;;;;;5046893;28;20036;-40
2024/02/18 05:15:56;;;;;;;1.58;1.20;;;10.50;99.90;;;;;;5033718;28;20040;-37
2024/02/18 05:18:22;;;;;;;6.18;1.77;;;10.50;99.90;;;;;;5033846;28;20504;-36
2024/02/18 05:20:47;;;;;;;2.65;1.80;;;10.50;99.90;;;;;;5042878;28;20041;-37
2024/02/18 05:23:13;;;;;;;6.57;1.70;;;10.50;99.90;;;;;;5052297;28;20036;-52
2024/02/18 05:25:39;;;;;;;10.80;1.83;;;10.50;99.90;;;;;;5039714;28;20026;-39
2024/02/18 05:28:08;;;;;;;5.22;1.90;;;10.50;99.90;;;;;;5039432;28;20112;-38
2024/02/18 05:30:34;;;;;;;6.53;1.73;;;10.50;99.90;;;;;;5052573;28;20458;-41
2024/02/18 05:32:59;;;;;;;2.45;2.03;;;10.40;99.90;;;;;;5053348;28;20036;-36
2024/02/18 05:35:28;;;;;;;4.43;1.80;;;10.40;99.90;;;;;;5040125;28;20044;-47
2024/02/18 05:37:53;;;;;;;5.65;1.70;;;10.40;99.90;;;;;;5033325;28;20489;-38
2024/02/18 05:40:20;;;;;;;6.93;1.55;;;10.30;99.90;;;;;;5033177;28;20101;-37
2024/02/18 05:42:45;;;;;;;4.72;1.92;;;10.30;99.90;;;;;;5033721;28;20037;-38
2024/02/18 05:45:11;;;;;;;7.13;2.38;;;10.30;99.90;;;;;;5033097;28;20025;-38
2024/02/18 05:47:37;;;;;;;8.02;1.65;;;10.20;99.90;;;;;;5032970;28;20037;-40
2024/02/18 05:50:03;;;;;;;4.95;1.98;;;10.20;99.90;;;;;;5032871;28;20029;-37
2024/02/18 05:52:29;;;;;;;5.75;2.15;;;10.20;99.90;;;;;;5033305;28;20371;-38
2024/02/18 05:54:55;;;;;;;7.88;1.60;;;10.10;99.90;;;;;;5032837;28;20021;-39
2024/02/18 05:57:20;;;;;;;12.23;2.42;;;10.10;99.90;;;;;;5034376;28;20026;-39
2024/02/18 05:59:46;;;;;;;5.85;1.63;;;10.10;99.90;;;;;;5052772;28;20036;-37
2024/02/18 06:02:12;;;;;;;5.40;1.65;;;10.10;99.90;;;;;;5040294;28;20022;-43
2024/02/18 06:04:37;;;;;;;9.15;2.80;;;10.10;99.90;;;;;;5039840;28;20021;-38
2024/02/18 06:07:03;;;;;;;8.98;2.30;;;10.10;99.90;;;;;;5032737;28;20040;-40
2024/02/18 06:09:29;;;;;;;8.20;2.55;;;10.00;99.90;;;;;;5031482;28;20391;-40
2024/02/18 06:11:55;;;;;;;6.63;2.10;;;10.10;99.90;;;;;;5032417;28;20017;-41
2024/02/18 06:14:20;;;;;;;6.03;1.73;;;10.10;99.90;;;;;;5047577;28;20021;-39
2024/02/18 06:16:46;;;;;;;17.15;2.40;;;10.10;99.90;;;;;;5052226;28;20035;-38
2024/02/18 06:19:12;;;;;;;3.75;1.75;;;10.00;99.90;;;;;;5048682;28;20033;-40
2024/02/18 06:21:38;;;;;;;7.35;2.33;;;9.90;99.90;;;;;;5032608;28;20502;-39
2024/02/18 06:24:04;;;;;;;7.28;1.77;;;10.00;99.90;;;;;;5032815;28;20029;-38
2024/02/18 06:26:30;;;;;;;5.22;2.35;;;9.90;99.90;;;;;;5032860;28;20514;-40
2024/02/18 06:28:55;;;;;;;11.57;2.13;;;9.90;99.90;;;;;;5049518;28;20116;-41
2024/02/18 06:31:21;;;;;;;12.35;2.22;;;9.90;99.90;;;;;;5036832;28;20037;-42
2024/02/18 06:33:47;;;;;;;13.43;2.13;;;9.90;99.90;;;;;;5031420;28;20044;-56
2024/02/18 06:36:14;;;;;;;5.57;2.33;;;9.90;99.90;;;;;;5035315;28;20040;-53
2024/02/18 06:38:43;;;;;;;8.85;1.83;;;9.90;99.90;;;;;;5032596;28;20025;-55
2024/02/18 06:41:09;;;;;;;6.70;1.77;;;9.90;99.90;;;;;;5032423;28;20025;-56
2024/02/18 06:43:35;;;;;;;7.22;2.15;;;9.90;99.90;;;;;;5043397;28;20474;-55
2024/02/18 06:46:01;;;;;;;3.75;1.90;;;9.80;99.90;;;;;;5052048;28;20025;-55
2024/02/18 06:48:26;;;;;;;5.90;2.03;;;9.80;99.90;;;;;;5046161;28;20245;-57
2024/02/18 06:50:52;;;;;;;12.13;2.47;;;9.80;99.90;;;;;;5032426;28;20536;-55
2024/02/18 06:53:18;;;;;;;4.60;1.90;;;9.80;99.90;;;;;;5032166;28;20454;-56
2024/02/18 06:55:44;;;;;;;10.77;2.40;;;9.70;99.90;;;;;;5032301;28;20393;-55
2024/02/18 06:58:11;;;;;;;7.40;2.30;;;9.70;99.90;;;;;;5032099;28;20489;-55
2024/02/18 07:00:37;;;;;;;3.70;2.13;;;9.70;99.90;;;;;;5032585;28;20021;-60
2024/02/18 07:03:06;;;;;;;7.45;2.33;;;9.70;99.90;;;;;;5049497;28;20486;-55
2024/02/18 07:05:32;;;;;;;4.10;1.98;;;9.60;99.90;;;;;;5041582;28;20477;-54
2024/02/18 07:07:58;;;;;;;7.40;2.28;;;9.60;99.90;;;;;;5032227;28;20045;-55
2024/02/18 07:10:24;;;;;;;8.68;2.03;;;9.60;99.90;;;;;;5032107;28;20026;-56
2024/02/18 07:12:49;;;;;;;6.93;1.85;;;9.60;99.90;;;;;;5033976;28;20485;-56
2024/02/18 07:15:15;;;;;;;6.03;1.77;;;9.60;99.90;;;;;;5051208;28;20033;-56
2024/02/18 07:17:41;;;;;;;3.00;2.05;;;9.60;99.90;;;;;;5050552;28;20496;-56
2024/02/18 07:20:08;;;;;;;1.95;1.83;;;9.60;99.90;;;;;;5051773;28;20040;-55
2024/02/18 07:22:34;;;;;;;3.10;2.10;;;9.60;99.90;;;;;;5045646;28;20437;-53
2024/02/18 07:25:00;;;;;;;4.65;1.65;;;9.60;99.90;;;;;;5033490;28;20705;-56
2024/02/18 07:27:26;;;;;;;6.07;2.13;;;9.60;99.90;;;;;;5035981;28;20445;-61
2024/02/18 07:29:51;;;;;;;5.10;1.75;;;9.60;99.90;;;;;;5037179;28;20121;-54
2024/02/18 07:32:17;;;;;;;5.13;1.88;;;9.50;99.90;;;;;;5036264;28;20079;-55
2024/02/18 07:34:43;;;;;;;13.65;2.17;;;9.50;99.90;;;;;;5036832;28;20029;-55
2024/02/18 07:37:08;;;;;;;3.85;1.80;;;9.50;99.90;;;;;;5051438;28;20108;-55
2024/02/18 07:39:34;;;;;;;10.05;1.80;;;9.50;99.90;;;;;;5054567;28;20021;-54
2024/02/18 07:41:59;;;;;;;5.82;2.53;;;9.50;99.90;;;;;;5055637;28;20025;-55
2024/02/18 07:44:25;;;;;;;11.77;2.15;;;9.50;99.90;;;;;;5043553;28;20113;-41
2024/02/18 07:46:54;;;;;;;6.50;2.08;;;9.50;99.90;;;;;;5035614;28;20100;-39
2024/02/18 07:49:22;;;;;;;7.45;2.08;;;9.50;99.90;;;;;;5044827;28;20025;-37
2024/02/18 07:51:47;;;;;;;;;;;9.50;99.90;;;;;;5042099;28;20084;-37
2024/02/18 07:54:13;;;;;;;8.55;2.38;;;9.50;99.90;;;;;;5035172;28;19913;-36
2024/02/18 07:56:46;;;;;;;8.50;1.80;;;9.40;99.90;;;;;;5034858;28;20076;-38
2024/02/18 07:59:21;;;;;;;18.08;2.15;;;9.40;99.90;;;;;;5035459;28;20041;-36
2024/02/18 08:01:48;;;;;;;5.13;1.60;;;9.40;99.90;;;;;;5034892;28;20528;-36
2024/02/18 08:04:14;;;;;;;8.48;2.22;;;9.40;99.90;;;;;;5034873;28;20022;-38
2024/02/18 08:06:40;;;;;;;8.45;1.58;;;9.40;99.90;;;;;;5046547;28;20507;-38
2024/02/18 08:09:09;;;;;;;10.98;1.95;;;9.40;99.90;;;;;;5054886;28;20116;-39
2024/02/18 08:11:35;;;;;;;5.63;1.80;;;9.30;99.90;;;;;;5052854;28;20504;-38
2024/02/18 08:14:01;;;;;;;12.98;1.77;;;9.30;99.90;;;;;;5052178;28;20051;-37
2024/02/18 08:16:28;;;;;;;10.23;1.95;;;9.30;99.90;;;;;;5054917;28;20496;-40
2024/02/18 08:18:54;;;;;;;5.63;1.73;;;9.30;99.90;;;;;;5052032;28;20473;-38
2024/02/18 08:21:20;;;;;;;5.75;1.90;;;9.30;99.90;;;;;;5033387;28;20585;-40
2024/02/18 08:23:46;;;;;;;8.68;1.90;;;9.30;99.90;;;;;;5034510;28;20112;-40
2024/02/18 08:26:22;;;;;;;3.28;1.98;;;9.30;99.90;;;;;;5034596;28;20116;-39
2024/02/18 08:28:49;;;;;;;10.73;1.83;;;9.30;99.90;;;;;;5033807;28;20032;-39
2024/02/18 08:31:15;;;;;;;8.23;1.80;;;9.30;99.90;;;;;;5033275;28;20026;-40
2024/02/18 08:33:41;;;;;;;9.98;1.77;;;9.30;99.90;;;;;;5052686;28;20393;-41
2024/02/18 08:36:06;;;;;;;8.38;2.05;;;9.30;99.90;;;;;;5050945;28;20037;-41
2024/02/18 08:38:32;;;;;;;5.03;1.95;;;9.30;99.90;;;;;;5047405;28;20436;-39
2024/02/18 08:40:58;;;;;;;11.70;1.75;;;9.40;99.90;;;;;;5034325;28;20173;-39
2024/02/18 08:43:23;;;;;;;9.90;2.15;;;9.40;99.90;;;;;;5052183;28;20025;-39
2024/02/18 08:45:49;;;;;;;13.68;1.92;;;9.40;99.90;;;;;;5041106;28;20029;-48
2024/02/18 08:48:14;;;;;;;5.78;1.75;;;9.40;99.90;;;;;;5033998;28;20036;-41
2024/02/18 08:50:40;;;;;;;10.80;2.08;;;9.40;99.90;;;;;;5042127;28;20474;-39
2024/02/18 08:53:06;;;;;;;5.05;1.77;;;9.40;99.90;;;;;;5032853;28;20490;-41
2024/02/18 08:55:32;;;;;;;6.68;1.35;;;9.40;99.90;;;;;;5034540;28;20030;-38
2024/02/18 08:57:57;;;;;;;10.80;1.90;;;9.40;99.90;;;;;;5032687;28;20470;-40
2024/02/18 09:00:23;;;;;;;8.38;2.38;;;9.30;99.90;;;;;;5048764;28;20055;-41
2024/02/18 09:02:49;;;;;;;6.57;1.55;;;9.40;99.90;;;;;;5042496;28;20025;-39
2024/02/18 09:05:15;;;;;;;2.85;1.80;;;9.40;99.90;;;;;;5040629;28;20027;-42
2024/02/18 09:07:41;;;;;;;9.25;2.15;;;9.40;99.90;;;;;;5035147;28;20480;-39
2024/02/18 09:10:07;;;;;;;7.90;1.70;;;9.40;99.90;;;;;;5033751;28;20029;-43
2024/02/18 09:12:32;;;;;;;19.83;3.42;;;9.40;99.90;;;;;;5033713;28;20040;-38
2024/02/18 09:14:58;;;;;;;11.13;2.38;;;9.50;99.90;;;;;;5043891;28;20021;-39
2024/02/18 09:17:24;;;;;;;7.20;2.72;;;9.50;99.90;;;;;;5051731;28;20059;-41
2024/02/18 09:19:50;;;;;;;8.35;2.50;;;9.50;99.90;;;;;;5045793;28;20110;-48
2024/02/18 09:22:15;;;;;;;7.82;2.08;;;9.50;99.90;;;;;;5033624;28;20515;-42
2024/02/18 09:24:44;;;;;;;4.97;2.00;;;9.50;99.90;;;;;;5032238;28;20390;-42
2024/02/18 09:27:10;;;;;;;7.65;2.22;;;9.50;99.90;;;;;;5033432;28;20441;-40
2024/02/18 09:29:37;;;;;;;5.20;2.45;;;9.60;99.90;;;;;;5039771;28;20029;-44
2024/02/18 09:32:03;;;;;;;5.05;2.05;;;9.60;99.90;;;;;;5046891;28;20026;-42
2024/02/18 09:34:30;;;;;;;4.90;2.13;;;9.60;99.90;;;;;;5033180;28;20116;-41
2024/02/18 09:36:56;;;;;;;6.13;1.98;;;9.70;99.90;;;;;;5044998;28;20470;-40
2024/02/18 09:39:22;;;;;;;6.50;2.42;;;9.60;99.90;;;;;;5052993;28;20021;-42
2024/02/18 09:41:50;;;;;;;9.05;3.15;;;9.60;99.90;;;;;;5043314;28;20434;-42
2024/02/18 09:44:20;;;;;;;4.18;2.42;;;9.60;99.90;;;;;;5039704;28;20458;-42
2024/02/18 09:46:48;;;;;;;10.63;2.85;;;9.60;99.90;;;;;;5052803;28;20078;-40
2024/02/18 09:49:15;;;;;;;;;;;9.60;99.90;;;;;;5053155;28;20037;-42
2024/02/18 09:51:40;;;;;;;10.88;2.33;;;9.60;99.90;;;;;;5050224;28;19982;-40
2024/02/18 09:54:08;;;;;;;5.95;2.17;;;9.50;99.90;;;;;;5044456;28;20025;-40
2024/02/18 09:56:34;;;;;;;6.60;2.42;;;9.50;99.90;;;;;;5032979;28;20108;-42
2024/02/18 09:59:00;;;;;;;8.48;2.30;;;9.50;99.90;;;;;;5036566;28;20491;-40
2024/02/18 10:01:26;;;;;;;7.97;3.08;;;9.50;99.90;;;;;;5047442;28;20394;-41
2024/02/18 10:03:52;;;;;;;14.95;2.85;;;9.50;99.90;;;;;;5052231;28;20032;-41
2024/02/18 10:06:18;;;;;;;9.35;2.05;;;9.50;99.90;;;;;;5047081;28;20021;-39
2024/02/18 10:08:51;;;;;;;6.80;2.72;;;9.50;99.90;;;;;;5044360;28;20033;-42
2024/02/18 10:11:21;;;;;;;11.07;3.13;;;9.50;99.90;;;;;;5051884;28;20033;-41
2024/02/18 10:13:48;;;;;;;7.70;2.38;;;9.60;99.90;;;;;;5052864;28;20111;-42
2024/02/18 10:16:16;;;;;;;6.38;2.25;;;9.60;99.90;;;;;;5052601;28;20540;-38
2024/02/18 10:18:43;;;;;;;7.93;2.60;;;9.50;99.90;;;;;;5047683;28;20109;-39
2024/02/18 10:21:19;;;;;;;5.47;2.50;;;9.50;99.90;;;;;;5037272;28;20570;-53
2024/02/18 10:23:46;;;;;;;5.38;2.08;;;9.50;99.90;;;;;;5044782;28;20533;-52
2024/02/18 10:26:12;;;;;;;12.97;3.30;;;9.50;99.90;;;;;;5031670;28;20554;-51
2024/02/18 10:28:41;;;;;;;2.25;2.00;;;9.50;99.90;;;;;;5033147;28;20490;-54
2024/02/18 10:31:07;;;;;;;7.90;3.08;;;9.60;99.90;;;;;;5032489;28;20029;-53
2024/02/18 10:33:34;;;;;;;5.70;2.80;;;9.70;99.90;;;;;;5048946;28;20067;-52
2024/02/18 10:36:21;;;;;;;7.72;2.97;;;9.60;99.90;;;;;;5052491;28;20033;-53
2024/02/18 10:38:50;;;;;;;11.50;3.03;;;9.60;99.90;;;;;;5052558;28;20037;-52
2024/02/18 10:41:18;;;;;;;10.85;2.97;;;9.60;99.90;;;;;;5034001;28;20122;-51
2024/02/18 10:43:51;;;;;;;7.85;3.13;;;9.60;99.90;;;;;;5034982;28;20104;-51
2024/02/18 10:46:21;;;;;;;7.18;3.13;;;9.50;99.90;;;;;;5052415;28;20275;-53
2024/02/18 10:49:10;;;;;;;10.32;2.35;;;9.50;99.90;;;;;;5050659;28;20056;-53
2024/02/18 10:51:40;;;;;;;11.05;2.67;;;9.50;99.90;;;;;;5051975;28;20033;-53
2024/02/18 10:54:15;;;;;;;8.50;2.63;;;9.50;99.90;;;;;;5034767;28;20494;-52
2024/02/18 10:56:41;;;;;;;9.73;3.05;;;9.50;99.90;;;;;;5032398;28;20083;-52
2024/02/18 10:59:20;;;;;;;7.18;2.60;;;9.60;99.90;;;;;;5032197;28;20021;-55
2024/02/18 11:01:55;;;;;;;6.55;3.15;;;9.50;99.90;;;;;;5046206;28;20108;-51
2024/02/18 11:04:21;;;;;;;11.43;3.05;;;9.50;99.90;;;;;;5050065;28;20076;-52
2024/02/18 11:06:48;;;;;;;8.10;2.60;;;9.50;99.90;;;;;;5048392;28;20119;-51
2024/02/18 11:09:14;;;;;;;9.10;3.20;;;9.50;99.90;;;;;;5042124;28;20499;-52
2024/02/18 11:11:42;;;;;;;5.75;2.20;;;9.50;99.90;;;;;;5055878;28;20104;-53
2024/02/18 11:14:09;;;;;;;4.05;2.67;;;9.50;99.90;;;;;;5048499;28;20496;-50
2024/02/18 11:16:35;;;;;;;6.53;2.95;;;9.50;99.90;;;;;;5055752;28;20478;-51
2024/02/18 11:19:02;;;;;;;12.68;3.53;;;9.40;99.90;;;;;;5044024;28;20516;-50
2024/02/18 11:21:30;;;;;;;4.25;2.53;;;9.50;99.90;;;;;;5048634;28;20049;-52
2024/02/18 11:23:56;;;;;;;13.45;3.20;;;9.50;99.90;;;;;;5041598;28;20156;-54
2024/02/18 11:26:22;;;;;;;5.38;3.10;;;9.50;99.90;;;;;;5040677;28;20108;-53
2024/02/18 11:28:48;;;;;;;6.40;2.45;;;9.40;99.90;;;;;;5046174;28;20032;-48
2024/02/18 11:31:29;;;;;;;4.95;3.00;;;9.40;99.90;;;;;;5043190;28;20056;-50
2024/02/18 11:33:56;;;;;;;9.27;3.30;;;9.40;99.90;;;;;;5044490;28;20025;-52
2024/02/18 11:36:24;;;;;;;8.02;3.28;;;9.40;99.90;;;;;;5039941;28;20072;-54
2024/02/18 11:38:56;;;;;;;5.75;2.28;;;9.40;99.90;;;;;;5035805;28;20386;-55
2024/02/18 11:41:30;;;;;;;2.70;2.42;;;9.40;99.90;;;;;;5038971;28;20525;-50
2024/02/18 11:43:57;;;;;;;3.55;2.50;;;9.40;99.90;;;;;;5055343;28;20099;-42
2024/02/18 11:46:25;;;;;;;10.98;2.53;;;9.40;99.90;;;;;;5055345;28;20477;-40
2024/02/18 11:48:54;;;;;;;;;;;9.40;99.90;;;;;;5048970;28;20024;-42
2024/02/18 11:51:21;;;;;;;10.10;3.20;;;9.40;99.90;;;;;;5035254;28;19909;-41
2024/02/18 11:53:48;;;;;;;8.43;2.40;;;9.30;99.90;;;;;;5035833;28;20072;-41
2024/02/18 11:56:14;;;;;;;3.83;2.53;;;9.40;99.90;;;;;;5035200;28;20446;-40
2024/02/18 11:58:40;;;;;;;7.43;2.55;;;9.40;99.90;;;;;;5034054;28;20474;-42
2024/02/18 12:01:07;;;;;;;4.40;2.20;;;9.40;99.90;;;;;;5036816;28;20017;-42
2024/02/18 12:03:33;;;;;;;6.97;2.58;;;9.40;99.90;;;;;;5054505;28;20024;-40
2024/02/18 12:06:00;;;;;;;4.05;2.55;;;9.30;99.90;;;;;;5054957;28;20036;-45
2024/02/18 12:08:28;;;;;;;2.60;2.40;;;9.30;99.90;;;;;;5050294;28;20467;-39
2024/02/18 12:10:54;;;;;;;7.85;2.80;;;9.40;99.90;;;;;;5053595;28;20596;-39
2024/02/18 12:13:23;;;;;;;3.67;1.85;;;9.40;99.90;;;;;;5054693;28;20032;-39
2024/02/18 12:15:50;;;;;;;3.15;2.30;;;9.40;99.90;;;;;;5054777;28;20028;-39
2024/02/18 12:18:22;;;;;;;7.45;2.00;;;9.40;99.90;;;;;;5035794;28;20092;-40
2024/02/18 12:20:49;;;;;;;6.90;2.10;;;9.40;99.90;;;;;;5034421;28;20120;-41
2024/02/18 12:23:17;;;;;;;3.70;2.10;;;9.40;99.90;;;;;;5033229;28;20540;-37
2024/02/18 12:25:42;;;;;;;3.45;2.33;;;9.40;99.90;;;;;;5035217;28;20053;-48
2024/02/18 12:28:11;;;;;;;2.78;1.95;;;9.40;99.90;;;;;;5047880;28;20060;-51
2024/02/18 12:30:40;;;;;;;5.60;2.38;;;9.40;99.90;;;;;;5052882;28;20497;-51
2024/02/18 12:33:06;;;;;;;7.85;2.13;;;9.40;99.90;;;;;;5040107;28;20032;-54
2024/02/18 12:35:36;;;;;;;3.90;1.90;;;9.40;99.90;;;;;;5034036;28;20510;-47
2024/02/18 12:38:05;;;;;;;4.20;2.08;;;9.40;99.90;;;;;;5034608;28;20075;-52
2024/02/18 12:40:31;;;;;;;10.13;2.28;;;9.50;99.90;;;;;;5032412;28;20017;-51
2024/02/18 12:42:57;;;;;;;4.78;2.13;;;9.50;99.90;;;;;;5045817;28;20470;-51
2024/02/18 12:45:25;;;;;;;8.65;1.88;;;9.50;99.90;;;;;;5034244;28;20032;-51
2024/02/18 12:47:55;;;;;;;5.53;2.20;;;9.50;99.90;;;;;;5048273;28;20458;-50